sensor_id;sensor_type;location;lat;lon;timestamp;temperature;humidity
10678;DHT22;5387;48.722;9.110;2023-01-24T00:00:52;1.50;99.90
10678;DHT22;5387;48.722;9.110;2023-01-24T00:03:20;1.50;99.90
10678;DHT22;5387;48.722;9.110;2023-01-24T00:05:48;1.40;99.90
10678;DHT22;5387;48.722;9.110;2023-01-24T00:08:17;1.40;99.90
10678;DHT22;5387;48.722;9.110;2023-01-24T00:10:45;1.40;99.90
10678;DHT22;5387;48.722;9.110;2023-01-24T00:13:13;1.50;99.90
10678;DHT22;5387;48.722;9.110;2023-01-24T00:15:40;1.40;99.90
10678;DHT22;5387;48.722;9.110;2023-01-24T00:18:07;1.30;99.90
10678;DHT22;5387;48.722;9.110;2023-01-24T00:20:35;1.30;99.90
10678;DHT22;5387;48.722;9.110;2023-01-24T00:23:02;1.30;99.90
10678;DHT22;5387;48.722;9.110;2023-01-24T00:25:29;1.40;99.90
10678;DHT22;5387;48.722;9.110;2023-01-24T00:27:56;1.30;99.90
10678;DHT22;5387;48.722;9.110;2023-01-24T00:30:23;1.30;99.90
10678;DHT22;5387;48.722;9.110;2023-01-24T00:32:50;1.30;99.90
10678;DHT22;5387;48.722;9.110;2023-01-24T00:35:16;1.40;99.90
10678;DHT22;5387;48.722;9.110;2023-01-24T00:37:44;1.50;99.90
10678;DHT22;5387;48.722;9.110;2023-01-24T00:40:11;1.30;99.90
10678;DHT22;5387;48.722;9.110;2023-01-24T00:42:38;1.40;99.90
10678;DHT22;5387;48.722;9.110;2023-01-24T00:45:06;1.40;99.90
10678;DHT22;5387;48.722;9.110;2023-01-24T00:47:33;1.40;99.90
10678;DHT22;5387;48.722;9.110;2023-01-24T00:50:00;1.40;99.90
10678;DHT22;5387;48.722;9.110;2023-01-24T00:52:26;1.40;99.90
10678;DHT22;5387;48.722;9.110;2023-01-24T00:54:54;1.40;99.90
10678;DHT22;5387;48.722;9.110;2023-01-24T00:57:21;1.40;99.90
10678;DHT22;5387;48.722;9.110;2023-01-24T00:59:49;1.50;99.90
10678;DHT22;5387;48.722;9.110;2023-01-24T01:02:16;1.50;99.90
10678;DHT22;5387;48.722;9.110;2023-01-24T01:04:43;1.50;99.90
10678;DHT22;5387;48.722;9.110;2023-01-24T01:07:10;1.40;99.90
10678;DHT22;5387;48.722;9.110;2023-01-24T01:09:36;1.40;99.90
10678;DHT22;5387;48.722;9.110;2023-01-24T01:12:05;1.40;99.90
10678;DHT22;5387;48.722;9.110;2023-01-24T01:14:32;1.30;99.90
10678;DHT22;5387;48.722;9.110;2023-01-24T01:16:58;1.40;99.90
10678;DHT22;5387;48.722;9.110;2023-01-24T01:19:25;1.40;99.90
10678;DHT22;5387;48.722;9.110;2023-01-24T01:21:52;1.40;99.90
10678;DHT22;5387;48.722;9.110;2023-01-24T01:24:19;1.40;99.90
10678;DHT22;5387;48.722;9.110;2023-01-24T01:26:45;1.40;99.90
10678;DHT22;5387;48.722;9.110;2023-01-24T01:29:14;1.30;99.90
10678;DHT22;5387;48.722;9.110;2023-01-24T01:31:40;1.40;99.90
10678;DHT22;5387;48.722;9.110;2023-01-24T01:34:08;1.40;99.90
10678;DHT22;5387;48.722;9.110;2023-01-24T01:36:35;1.40;99.90
10678;DHT22;5387;48.722;9.110;2023-01-24T01:39:02;1.50;99.90
10678;DHT22;5387;48.722;9.110;2023-01-24T01:41:29;1.50;99.90
10678;DHT22;5387;48.722;9.110;2023-01-24T01:43:56;1.50;99.90
10678;DHT22;5387;48.722;9.110;2023-01-24T01:46:43;1.50;99.90
10678;DHT22;5387;48.722;9.110;2023-01-24T01:49:17;1.50;99.90
10678;DHT22;5387;48.722;9.110;2023-01-24T01:51:48;1.50;99.90
10678;DHT22;5387;48.722;9.110;2023-01-24T01:54:19;1.50;99.90
10678;DHT22;5387;48.722;9.110;2023-01-24T01:56:48;1.50;99.90
10678;DHT22;5387;48.722;9.110;2023-01-24T01:59:18;1.50;99.90
10678;DHT22;5387;48.722;9.110;2023-01-24T02:01:49;1.50;99.90
10678;DHT22;5387;48.722;9.110;2023-01-24T02:04:27;1.50;99.90
10678;DHT22;5387;48.722;9.110;2023-01-24T02:06:59;1.60;99.90
10678;DHT22;5387;48.722;9.110;2023-01-24T02:09:31;1.60;99.90
10678;DHT22;5387;48.722;9.110;2023-01-24T02:12:01;1.60;99.90
10678;DHT22;5387;48.722;9.110;2023-01-24T02:14:29;1.60;99.90
10678;DHT22;5387;48.722;9.110;2023-01-24T02:17:17;1.60;99.90
10678;DHT22;5387;48.722;9.110;2023-01-24T02:20:02;1.60;99.90
10678;DHT22;5387;48.722;9.110;2023-01-24T02:22:37;1.60;99.90
10678;DHT22;5387;48.722;9.110;2023-01-24T02:25:12;1.50;99.90
10678;DHT22;5387;48.722;9.110;2023-01-24T02:27:42;1.50;99.90
10678;DHT22;5387;48.722;9.110;2023-01-24T02:30:10;1.50;99.90
10678;DHT22;5387;48.722;9.110;2023-01-24T02:32:37;1.50;99.90
10678;DHT22;5387;48.722;9.110;2023-01-24T02:35:05;1.50;99.90
10678;DHT22;5387;48.722;9.110;2023-01-24T02:37:32;1.50;99.90
10678;DHT22;5387;48.722;9.110;2023-01-24T02:40:05;1.50;99.90
10678;DHT22;5387;48.722;9.110;2023-01-24T02:42:36;1.50;99.90
10678;DHT22;5387;48.722;9.110;2023-01-24T02:45:10;1.50;99.90
10678;DHT22;5387;48.722;9.110;2023-01-24T02:47:42;1.50;99.90
10678;DHT22;5387;48.722;9.110;2023-01-24T02:50:10;1.50;99.90
10678;DHT22;5387;48.722;9.110;2023-01-24T02:52:37;1.50;99.90
10678;DHT22;5387;48.722;9.110;2023-01-24T02:55:21;1.50;99.90
10678;DHT22;5387;48.722;9.110;2023-01-24T02:57:48;1.50;99.90
10678;DHT22;5387;48.722;9.110;2023-01-24T03:00:34;1.50;99.90
10678;DHT22;5387;48.722;9.110;2023-01-24T03:03:01;1.50;99.90
10678;DHT22;5387;48.722;9.110;2023-01-24T03:05:29;1.50;99.90
10678;DHT22;5387;48.722;9.110;2023-01-24T03:08:06;1.40;99.90
10678;DHT22;5387;48.722;9.110;2023-01-24T03:10:34;1.40;99.90
10678;DHT22;5387;48.722;9.110;2023-01-24T03:13:01;1.40;99.90
10678;DHT22;5387;48.722;9.110;2023-01-24T03:15:46;1.30;99.90
10678;DHT22;5387;48.722;9.110;2023-01-24T03:18:31;1.40;99.90
10678;DHT22;5387;48.722;9.110;2023-01-24T03:21:15;1.30;99.90
10678;DHT22;5387;48.722;9.110;2023-01-24T03:23:59;1.30;99.90
10678;DHT22;5387;48.722;9.110;2023-01-24T03:26:43;1.30;99.90
10678;DHT22;5387;48.722;9.110;2023-01-24T03:29:28;1.40;99.90
10678;DHT22;5387;48.722;9.110;2023-01-24T03:32:13;1.30;99.90
10678;DHT22;5387;48.722;9.110;2023-01-24T03:34:57;1.40;99.90
10678;DHT22;5387;48.722;9.110;2023-01-24T03:37:24;1.30;99.90
10678;DHT22;5387;48.722;9.110;2023-01-24T03:40:11;1.40;99.90
10678;DHT22;5387;48.722;9.110;2023-01-24T03:42:38;1.40;99.90
10678;DHT22;5387;48.722;9.110;2023-01-24T03:45:12;1.40;99.90
10678;DHT22;5387;48.722;9.110;2023-01-24T03:47:46;1.40;99.90
10678;DHT22;5387;48.722;9.110;2023-01-24T03:50:20;1.30;99.90
10678;DHT22;5387;48.722;9.110;2023-01-24T03:53:05;1.30;99.90
10678;DHT22;5387;48.722;9.110;2023-01-24T03:55:32;1.30;99.90
10678;DHT22;5387;48.722;9.110;2023-01-24T03:57:59;1.30;99.90
10678;DHT22;5387;48.722;9.110;2023-01-24T04:00:26;1.30;99.90
10678;DHT22;5387;48.722;9.110;2023-01-24T04:02:54;1.30;99.90
10678;DHT22;5387;48.722;9.110;2023-01-24T04:05:21;1.30;99.90
10678;DHT22;5387;48.722;9.110;2023-01-24T04:07:48;1.30;99.90
10678;DHT22;5387;48.722;9.110;2023-01-24T04:10:15;1.30;99.90
10678;DHT22;5387;48.722;9.110;2023-01-24T04:12:43;1.40;99.90
10678;DHT22;5387;48.722;9.110;2023-01-24T04:15:15;1.40;99.90
10678;DHT22;5387;48.722;9.110;2023-01-24T04:17:42;1.50;99.90
10678;DHT22;5387;48.722;9.110;2023-01-24T04:20:11;1.50;99.90
10678;DHT22;5387;48.722;9.110;2023-01-24T04:22:38;1.50;99.90
10678;DHT22;5387;48.722;9.110;2023-01-24T04:25:05;1.50;99.90
10678;DHT22;5387;48.722;9.110;2023-01-24T04:27:32;1.50;99.90
10678;DHT22;5387;48.722;9.110;2023-01-24T04:29:59;1.50;99.90
10678;DHT22;5387;48.722;9.110;2023-01-24T04:32:26;1.50;99.90
10678;DHT22;5387;48.722;9.110;2023-01-24T04:34:54;1.50;99.90
10678;DHT22;5387;48.722;9.110;2023-01-24T04:37:22;1.50;99.90
10678;DHT22;5387;48.722;9.110;2023-01-24T04:39:49;1.40;99.90
10678;DHT22;5387;48.722;9.110;2023-01-24T04:42:16;1.40;99.90
10678;DHT22;5387;48.722;9.110;2023-01-24T04:44:42;1.40;99.90
10678;DHT22;5387;48.722;9.110;2023-01-24T04:47:09;1.40;99.90
10678;DHT22;5387;48.722;9.110;2023-01-24T04:49:36;1.40;99.90
10678;DHT22;5387;48.722;9.110;2023-01-24T04:52:03;1.40;99.90
10678;DHT22;5387;48.722;9.110;2023-01-24T04:54:31;1.40;99.90
10678;DHT22;5387;48.722;9.110;2023-01-24T04:56:58;1.50;99.90
10678;DHT22;5387;48.722;9.110;2023-01-24T04:59:25;1.50;99.90
10678;DHT22;5387;48.722;9.110;2023-01-24T05:01:52;1.50;99.90
10678;DHT22;5387;48.722;9.110;2023-01-24T05:04:19;1.60;99.90
10678;DHT22;5387;48.722;9.110;2023-01-24T05:06:45;1.60;99.90
10678;DHT22;5387;48.722;9.110;2023-01-24T05:09:12;1.60;99.90
10678;DHT22;5387;48.722;9.110;2023-01-24T05:11:40;1.60;99.90
10678;DHT22;5387;48.722;9.110;2023-01-24T05:14:08;1.50;99.90
10678;DHT22;5387;48.722;9.110;2023-01-24T05:16:34;1.50;99.90
10678;DHT22;5387;48.722;9.110;2023-01-24T05:19:01;1.50;99.90
10678;DHT22;5387;48.722;9.110;2023-01-24T05:21:28;1.60;99.90
10678;DHT22;5387;48.722;9.110;2023-01-24T05:23:55;1.60;99.90
10678;DHT22;5387;48.722;9.110;2023-01-24T05:26:24;1.60;99.90
10678;DHT22;5387;48.722;9.110;2023-01-24T05:28:53;1.60;99.90
10678;DHT22;5387;48.722;9.110;2023-01-24T05:31:20;1.60;99.90
10678;DHT22;5387;48.722;9.110;2023-01-24T05:33:47;1.60;99.90
10678;DHT22;5387;48.722;9.110;2023-01-24T05:36:16;1.60;99.90
10678;DHT22;5387;48.722;9.110;2023-01-24T05:38:43;1.50;99.90
10678;DHT22;5387;48.722;9.110;2023-01-24T05:41:11;1.50;99.90
10678;DHT22;5387;48.722;9.110;2023-01-24T05:43:39;1.50;99.90
10678;DHT22;5387;48.722;9.110;2023-01-24T05:46:11;1.50;99.90
10678;DHT22;5387;48.722;9.110;2023-01-24T05:48:38;1.50;99.90
10678;DHT22;5387;48.722;9.110;2023-01-24T05:51:06;1.60;99.90
10678;DHT22;5387;48.722;9.110;2023-01-24T05:53:35;1.60;99.90
10678;DHT22;5387;48.722;9.110;2023-01-24T05:56:04;1.50;99.90
10678;DHT22;5387;48.722;9.110;2023-01-24T05:58:33;1.50;99.90
10678;DHT22;5387;48.722;9.110;2023-01-24T06:01:00;1.60;99.90
10678;DHT22;5387;48.722;9.110;2023-01-24T06:03:29;1.60;99.90
10678;DHT22;5387;48.722;9.110;2023-01-24T06:05:55;1.50;99.90
10678;DHT22;5387;48.722;9.110;2023-01-24T06:08:22;1.50;99.90
10678;DHT22;5387;48.722;9.110;2023-01-24T06:10:49;1.50;99.90
10678;DHT22;5387;48.722;9.110;2023-01-24T06:13:16;1.50;99.90
10678;DHT22;5387;48.722;9.110;2023-01-24T06:15:42;1.50;99.90
10678;DHT22;5387;48.722;9.110;2023-01-24T06:18:14;1.50;99.90
10678;DHT22;5387;48.722;9.110;2023-01-24T06:20:43;1.60;99.90
10678;DHT22;5387;48.722;9.110;2023-01-24T06:23:19;1.70;99.90
10678;DHT22;5387;48.722;9.110;2023-01-24T06:25:49;1.70;99.90
10678;DHT22;5387;48.722;9.110;2023-01-24T06:28:16;1.60;99.90
10678;DHT22;5387;48.722;9.110;2023-01-24T06:30:47;1.60;99.90
10678;DHT22;5387;48.722;9.110;2023-01-24T06:33:24;1.50;99.90
10678;DHT22;5387;48.722;9.110;2023-01-24T06:36:07;1.60;99.90
10678;DHT22;5387;48.722;9.110;2023-01-24T06:38:36;1.50;99.90
10678;DHT22;5387;48.722;9.110;2023-01-24T06:41:10;1.50;99.90
10678;DHT22;5387;48.722;9.110;2023-01-24T06:43:40;1.50;99.90
10678;DHT22;5387;48.722;9.110;2023-01-24T06:46:08;1.50;99.90
10678;DHT22;5387;48.722;9.110;2023-01-24T06:48:35;1.50;99.90
10678;DHT22;5387;48.722;9.110;2023-01-24T06:51:03;1.50;99.90
10678;DHT22;5387;48.722;9.110;2023-01-24T06:53:31;1.40;99.90
10678;DHT22;5387;48.722;9.110;2023-01-24T06:55:58;1.50;99.90
10678;DHT22;5387;48.722;9.110;2023-01-24T06:58:25;1.40;99.90
10678;DHT22;5387;48.722;9.110;2023-01-24T07:00:52;1.50;99.90
10678;DHT22;5387;48.722;9.110;2023-01-24T07:03:19;1.40;99.90
10678;DHT22;5387;48.722;9.110;2023-01-24T07:05:47;1.40;99.90
10678;DHT22;5387;48.722;9.110;2023-01-24T07:08:15;1.40;99.90
10678;DHT22;5387;48.722;9.110;2023-01-24T07:10:45;1.40;99.90
10678;DHT22;5387;48.722;9.110;2023-01-24T07:13:12;1.40;99.90
10678;DHT22;5387;48.722;9.110;2023-01-24T07:15:38;1.40;99.90
10678;DHT22;5387;48.722;9.110;2023-01-24T07:18:06;1.40;99.90
10678;DHT22;5387;48.722;9.110;2023-01-24T07:20:33;1.40;99.90
10678;DHT22;5387;48.722;9.110;2023-01-24T07:23:01;1.40;99.90
10678;DHT22;5387;48.722;9.110;2023-01-24T07:25:29;1.50;99.90
10678;DHT22;5387;48.722;9.110;2023-01-24T07:27:57;1.50;99.90
10678;DHT22;5387;48.722;9.110;2023-01-24T07:30:24;1.50;99.90
10678;DHT22;5387;48.722;9.110;2023-01-24T07:32:53;1.50;99.90
10678;DHT22;5387;48.722;9.110;2023-01-24T07:35:20;1.50;99.90
10678;DHT22;5387;48.722;9.110;2023-01-24T07:37:47;1.40;99.90
10678;DHT22;5387;48.722;9.110;2023-01-24T07:40:14;1.40;99.90
10678;DHT22;5387;48.722;9.110;2023-01-24T07:42:42;1.40;99.90
10678;DHT22;5387;48.722;9.110;2023-01-24T07:45:09;1.40;99.90
10678;DHT22;5387;48.722;9.110;2023-01-24T07:47:36;1.40;99.90
10678;DHT22;5387;48.722;9.110;2023-01-24T07:50:03;1.40;99.90
10678;DHT22;5387;48.722;9.110;2023-01-24T07:52:30;1.50;99.90
10678;DHT22;5387;48.722;9.110;2023-01-24T07:54:57;1.50;99.90
10678;DHT22;5387;48.722;9.110;2023-01-24T07:57:24;1.60;99.90
10678;DHT22;5387;48.722;9.110;2023-01-24T07:59:52;1.40;99.90
10678;DHT22;5387;48.722;9.110;2023-01-24T08:02:18;1.50;99.90
10678;DHT22;5387;48.722;9.110;2023-01-24T08:04:45;1.50;99.90
10678;DHT22;5387;48.722;9.110;2023-01-24T08:07:12;1.40;99.90
10678;DHT22;5387;48.722;9.110;2023-01-24T08:09:46;1.30;99.90
10678;DHT22;5387;48.722;9.110;2023-01-24T08:12:14;1.40;99.90
10678;DHT22;5387;48.722;9.110;2023-01-24T08:14:40;1.50;99.90
10678;DHT22;5387;48.722;9.110;2023-01-24T08:17:09;1.50;99.90
10678;DHT22;5387;48.722;9.110;2023-01-24T08:19:36;1.50;99.90
10678;DHT22;5387;48.722;9.110;2023-01-24T08:22:03;1.50;99.90
10678;DHT22;5387;48.722;9.110;2023-01-24T08:24:30;1.60;99.90
10678;DHT22;5387;48.722;9.110;2023-01-24T08:26:57;1.60;99.90
10678;DHT22;5387;48.722;9.110;2023-01-24T08:29:24;1.70;99.90
10678;DHT22;5387;48.722;9.110;2023-01-24T08:31:51;1.70;99.90
10678;DHT22;5387;48.722;9.110;2023-01-24T08:34:19;1.60;99.90
10678;DHT22;5387;48.722;9.110;2023-01-24T08:36:46;1.60;99.90
10678;DHT22;5387;48.722;9.110;2023-01-24T08:39:13;1.60;99.90
10678;DHT22;5387;48.722;9.110;2023-01-24T08:41:40;1.70;99.90
10678;DHT22;5387;48.722;9.110;2023-01-24T08:44:08;1.70;99.90
10678;DHT22;5387;48.722;9.110;2023-01-24T08:46:35;1.70;99.90
10678;DHT22;5387;48.722;9.110;2023-01-24T08:49:02;1.70;99.90
10678;DHT22;5387;48.722;9.110;2023-01-24T08:51:31;1.70;99.90
10678;DHT22;5387;48.722;9.110;2023-01-24T08:53:57;1.60;99.90
10678;DHT22;5387;48.722;9.110;2023-01-24T08:56:24;1.80;99.90
10678;DHT22;5387;48.722;9.110;2023-01-24T08:58:51;1.80;99.90
10678;DHT22;5387;48.722;9.110;2023-01-24T09:01:18;1.80;99.90
10678;DHT22;5387;48.722;9.110;2023-01-24T09:03:45;1.90;99.90
10678;DHT22;5387;48.722;9.110;2023-01-24T09:06:14;2.00;99.90
10678;DHT22;5387;48.722;9.110;2023-01-24T09:08:42;1.80;99.90
10678;DHT22;5387;48.722;9.110;2023-01-24T09:11:09;1.90;99.90
10678;DHT22;5387;48.722;9.110;2023-01-24T09:13:36;2.00;99.90
10678;DHT22;5387;48.722;9.110;2023-01-24T09:16:03;1.90;99.90
10678;DHT22;5387;48.722;9.110;2023-01-24T09:18:30;1.90;99.90
10678;DHT22;5387;48.722;9.110;2023-01-24T09:21:00;1.90;99.90
10678;DHT22;5387;48.722;9.110;2023-01-24T09:23:28;2.00;99.90
10678;DHT22;5387;48.722;9.110;2023-01-24T09:25:56;2.10;99.90
10678;DHT22;5387;48.722;9.110;2023-01-24T09:28:23;2.10;99.90
10678;DHT22;5387;48.722;9.110;2023-01-24T09:30:50;2.20;99.90
10678;DHT22;5387;48.722;9.110;2023-01-24T09:33:18;2.00;99.90
10678;DHT22;5387;48.722;9.110;2023-01-24T09:35:51;1.90;99.90
10678;DHT22;5387;48.722;9.110;2023-01-24T09:38:18;2.00;99.90
10678;DHT22;5387;48.722;9.110;2023-01-24T09:40:48;2.00;99.90
10678;DHT22;5387;48.722;9.110;2023-01-24T09:43:41;2.00;99.90
10678;DHT22;5387;48.722;9.110;2023-01-24T09:46:18;2.00;99.90
10678;DHT22;5387;48.722;9.110;2023-01-24T09:48:48;2.10;99.90
10678;DHT22;5387;48.722;9.110;2023-01-24T09:51:19;2.20;99.90
10678;DHT22;5387;48.722;9.110;2023-01-24T09:53:50;2.00;99.90
10678;DHT22;5387;48.722;9.110;2023-01-24T09:56:21;2.00;99.90
10678;DHT22;5387;48.722;9.110;2023-01-24T09:59:06;2.10;99.90
10678;DHT22;5387;48.722;9.110;2023-01-24T10:01:37;2.10;99.90
10678;DHT22;5387;48.722;9.110;2023-01-24T10:04:17;2.00;99.90
10678;DHT22;5387;48.722;9.110;2023-01-24T10:06:59;2.00;99.90
10678;DHT22;5387;48.722;9.110;2023-01-24T10:09:39;2.20;99.90
10678;DHT22;5387;48.722;9.110;2023-01-24T10:12:20;2.20;99.90
10678;DHT22;5387;48.722;9.110;2023-01-24T10:15:00;2.10;99.90
10678;DHT22;5387;48.722;9.110;2023-01-24T10:20:51;2.00;99.90
10678;DHT22;5387;48.722;9.110;2023-01-24T10:23:26;2.00;99.90
10678;DHT22;5387;48.722;9.110;2023-01-24T10:25:55;2.10;99.90
10678;DHT22;5387;48.722;9.110;2023-01-24T10:28:27;2.20;99.90
10678;DHT22;5387;48.722;9.110;2023-01-24T10:31:01;2.10;99.90
10678;DHT22;5387;48.722;9.110;2023-01-24T10:33:34;2.20;99.90
10678;DHT22;5387;48.722;9.110;2023-01-24T10:36:08;2.10;99.90
10678;DHT22;5387;48.722;9.110;2023-01-24T10:38:37;2.20;99.90
10678;DHT22;5387;48.722;9.110;2023-01-24T10:41:18;2.30;99.90
10678;DHT22;5387;48.722;9.110;2023-01-24T10:43:49;2.30;99.90
10678;DHT22;5387;48.722;9.110;2023-01-24T10:49:20;2.10;99.90
10678;DHT22;5387;48.722;9.110;2023-01-24T10:52:07;2.20;99.90
10678;DHT22;5387;48.722;9.110;2023-01-24T10:54:42;2.30;99.90
10678;DHT22;5387;48.722;9.110;2023-01-24T10:57:18;2.40;99.90
10678;DHT22;5387;48.722;9.110;2023-01-24T10:59:46;2.40;99.90
10678;DHT22;5387;48.722;9.110;2023-01-24T11:02:22;2.40;99.90
10678;DHT22;5387;48.722;9.110;2023-01-24T11:04:55;2.40;99.90
10678;DHT22;5387;48.722;9.110;2023-01-24T11:07:27;2.40;99.90
10678;DHT22;5387;48.722;9.110;2023-01-24T11:09:54;2.40;99.90
10678;DHT22;5387;48.722;9.110;2023-01-24T11:12:21;2.40;99.90
10678;DHT22;5387;48.722;9.110;2023-01-24T11:14:48;2.60;99.90
10678;DHT22;5387;48.722;9.110;2023-01-24T11:17:31;2.80;99.90
10678;DHT22;5387;48.722;9.110;2023-01-24T11:20:00;2.80;99.90
10678;DHT22;5387;48.722;9.110;2023-01-24T11:22:28;3.10;99.90
10678;DHT22;5387;48.722;9.110;2023-01-24T11:25:02;3.00;99.90
10678;DHT22;5387;48.722;9.110;2023-01-24T11:27:29;3.20;99.90
10678;DHT22;5387;48.722;9.110;2023-01-24T11:30:13;3.10;99.90
10678;DHT22;5387;48.722;9.110;2023-01-24T11:32:50;3.30;99.90
10678;DHT22;5387;48.722;9.110;2023-01-24T11:35:22;3.00;99.90
10678;DHT22;5387;48.722;9.110;2023-01-24T11:40:57;2.90;99.90
10678;DHT22;5387;48.722;9.110;2023-01-24T11:43:47;2.90;99.90
10678;DHT22;5387;48.722;9.110;2023-01-24T11:46:44;3.00;99.90
10678;DHT22;5387;48.722;9.110;2023-01-24T11:49:30;3.00;99.90
10678;DHT22;5387;48.722;9.110;2023-01-24T11:52:04;3.10;99.90
10678;DHT22;5387;48.722;9.110;2023-01-24T11:54:43;3.10;99.90
10678;DHT22;5387;48.722;9.110;2023-01-24T11:57:21;3.10;99.90
10678;DHT22;5387;48.722;9.110;2023-01-24T12:00:02;3.00;99.90
10678;DHT22;5387;48.722;9.110;2023-01-24T12:02:54;3.00;99.90
10678;DHT22;5387;48.722;9.110;2023-01-24T12:05:51;3.00;99.90
10678;DHT22;5387;48.722;9.110;2023-01-24T12:08:35;3.10;99.90
10678;DHT22;5387;48.722;9.110;2023-01-24T12:11:12;3.10;99.90
10678;DHT22;5387;48.722;9.110;2023-01-24T12:13:47;3.00;99.90
10678;DHT22;5387;48.722;9.110;2023-01-24T12:16:23;2.90;99.90
10678;DHT22;5387;48.722;9.110;2023-01-24T12:19:15;3.00;99.90
10678;DHT22;5387;48.722;9.110;2023-01-24T12:21:52;2.90;99.90
10678;DHT22;5387;48.722;9.110;2023-01-24T12:24:23;3.00;99.90
10678;DHT22;5387;48.722;9.110;2023-01-24T12:26:53;2.90;99.90
10678;DHT22;5387;48.722;9.110;2023-01-24T12:29:26;3.00;99.90
10678;DHT22;5387;48.722;9.110;2023-01-24T12:31:58;3.10;99.90
10678;DHT22;5387;48.722;9.110;2023-01-24T12:34:37;3.00;99.90
10678;DHT22;5387;48.722;9.110;2023-01-24T12:37:12;2.90;99.90
10678;DHT22;5387;48.722;9.110;2023-01-24T12:39:48;2.70;99.90
10678;DHT22;5387;48.722;9.110;2023-01-24T12:42:23;2.70;99.90
10678;DHT22;5387;48.722;9.110;2023-01-24T12:44:56;2.70;99.90
10678;DHT22;5387;48.722;9.110;2023-01-24T12:47:32;2.70;99.90
10678;DHT22;5387;48.722;9.110;2023-01-24T12:50:10;2.60;99.90
10678;DHT22;5387;48.722;9.110;2023-01-24T12:52:44;2.70;99.90
10678;DHT22;5387;48.722;9.110;2023-01-24T12:55:15;2.60;99.90
10678;DHT22;5387;48.722;9.110;2023-01-24T12:57:45;2.50;99.90
10678;DHT22;5387;48.722;9.110;2023-01-24T13:00:18;2.50;99.90
10678;DHT22;5387;48.722;9.110;2023-01-24T13:03:01;2.50;99.90
10678;DHT22;5387;48.722;9.110;2023-01-24T13:05:45;2.60;99.90
10678;DHT22;5387;48.722;9.110;2023-01-24T13:08:23;2.60;99.90
10678;DHT22;5387;48.722;9.110;2023-01-24T13:11:00;2.60;99.90
10678;DHT22;5387;48.722;9.110;2023-01-24T13:13:33;2.60;99.90
10678;DHT22;5387;48.722;9.110;2023-01-24T13:16:26;2.70;99.90
10678;DHT22;5387;48.722;9.110;2023-01-24T13:18:58;2.70;99.90
10678;DHT22;5387;48.722;9.110;2023-01-24T13:21:34;2.70;99.90
10678;DHT22;5387;48.722;9.110;2023-01-24T13:24:30;2.60;99.90
10678;DHT22;5387;48.722;9.110;2023-01-24T13:27:14;2.50;99.90
10678;DHT22;5387;48.722;9.110;2023-01-24T13:29:53;2.40;99.90
10678;DHT22;5387;48.722;9.110;2023-01-24T13:32:24;2.50;99.90
10678;DHT22;5387;48.722;9.110;2023-01-24T13:34:54;2.60;99.90
10678;DHT22;5387;48.722;9.110;2023-01-24T13:37:24;2.50;99.90
10678;DHT22;5387;48.722;9.110;2023-01-24T13:40:02;2.50;99.90
10678;DHT22;5387;48.722;9.110;2023-01-24T13:42:34;2.40;99.90
10678;DHT22;5387;48.722;9.110;2023-01-24T13:51:29;2.30;99.90
10678;DHT22;5387;48.722;9.110;2023-01-24T13:53:57;2.20;99.90
10678;DHT22;5387;48.722;9.110;2023-01-24T13:56:26;2.30;99.90
10678;DHT22;5387;48.722;9.110;2023-01-24T13:58:55;2.20;99.90
10678;DHT22;5387;48.722;9.110;2023-01-24T14:01:22;2.20;99.90
10678;DHT22;5387;48.722;9.110;2023-01-24T14:03:55;2.30;99.90
10678;DHT22;5387;48.722;9.110;2023-01-24T14:06:22;2.20;99.90
10678;DHT22;5387;48.722;9.110;2023-01-24T14:09:03;2.20;99.90
10678;DHT22;5387;48.722;9.110;2023-01-24T14:11:37;2.30;99.90
10678;DHT22;5387;48.722;9.110;2023-01-24T14:17:27;2.20;99.90
10678;DHT22;5387;48.722;9.110;2023-01-24T14:19:56;2.30;99.90
10678;DHT22;5387;48.722;9.110;2023-01-24T14:22:37;2.20;99.90
10678;DHT22;5387;48.722;9.110;2023-01-24T14:28:12;2.30;99.90
10678;DHT22;5387;48.722;9.110;2023-01-24T14:30:45;2.20;99.90
10678;DHT22;5387;48.722;9.110;2023-01-24T14:33:23;2.10;99.90
10678;DHT22;5387;48.722;9.110;2023-01-24T14:36:01;2.10;99.90
10678;DHT22;5387;48.722;9.110;2023-01-24T14:38:28;2.00;99.90
10678;DHT22;5387;48.722;9.110;2023-01-24T14:40:56;2.00;99.90
10678;DHT22;5387;48.722;9.110;2023-01-24T14:43:33;2.10;99.90
10678;DHT22;5387;48.722;9.110;2023-01-24T14:46:12;2.00;99.90
10678;DHT22;5387;48.722;9.110;2023-01-24T14:48:39;2.00;99.90
10678;DHT22;5387;48.722;9.110;2023-01-24T14:51:11;2.10;99.90
10678;DHT22;5387;48.722;9.110;2023-01-24T14:53:46;2.10;99.90
10678;DHT22;5387;48.722;9.110;2023-01-24T14:56:13;2.10;99.90
10678;DHT22;5387;48.722;9.110;2023-01-24T14:58:41;2.00;99.90
10678;DHT22;5387;48.722;9.110;2023-01-24T15:01:24;2.10;99.90
10678;DHT22;5387;48.722;9.110;2023-01-24T15:03:52;2.10;99.90
10678;DHT22;5387;48.722;9.110;2023-01-24T15:06:21;2.10;99.90
10678;DHT22;5387;48.722;9.110;2023-01-24T15:08:48;2.10;99.90
10678;DHT22;5387;48.722;9.110;2023-01-24T15:11:20;2.00;99.90
10678;DHT22;5387;48.722;9.110;2023-01-24T15:13:50;2.00;99.90
10678;DHT22;5387;48.722;9.110;2023-01-24T15:16:18;2.10;99.90
10678;DHT22;5387;48.722;9.110;2023-01-24T15:18:48;2.10;99.90
10678;DHT22;5387;48.722;9.110;2023-01-24T15:21:18;2.10;99.90
10678;DHT22;5387;48.722;9.110;2023-01-24T15:23:49;2.10;99.90
10678;DHT22;5387;48.722;9.110;2023-01-24T15:26:31;2.00;99.90
10678;DHT22;5387;48.722;9.110;2023-01-24T15:32:29;2.00;99.90
10678;DHT22;5387;48.722;9.110;2023-01-24T15:35:12;2.00;99.90
10678;DHT22;5387;48.722;9.110;2023-01-24T15:37:39;2.00;99.90
10678;DHT22;5387;48.722;9.110;2023-01-24T15:40:14;2.10;99.90
10678;DHT22;5387;48.722;9.110;2023-01-24T15:42:44;2.20;99.90
10678;DHT22;5387;48.722;9.110;2023-01-24T15:45:31;2.20;99.90
10678;DHT22;5387;48.722;9.110;2023-01-24T15:48:11;2.10;99.90
10678;DHT22;5387;48.722;9.110;2023-01-24T15:50:48;2.00;99.90
10678;DHT22;5387;48.722;9.110;2023-01-24T15:53:36;2.10;99.90
10678;DHT22;5387;48.722;9.110;2023-01-24T15:56:06;2.10;99.90
10678;DHT22;5387;48.722;9.110;2023-01-24T15:58:36;2.20;99.90
10678;DHT22;5387;48.722;9.110;2023-01-24T16:01:05;2.20;99.90
10678;DHT22;5387;48.722;9.110;2023-01-24T16:03:32;2.20;99.90
10678;DHT22;5387;48.722;9.110;2023-01-24T16:05:58;2.20;99.90
10678;DHT22;5387;48.722;9.110;2023-01-24T16:08:25;2.20;99.90
10678;DHT22;5387;48.722;9.110;2023-01-24T16:10:52;2.20;99.90
10678;DHT22;5387;48.722;9.110;2023-01-24T16:13:26;2.10;99.90
10678;DHT22;5387;48.722;9.110;2023-01-24T16:15:55;2.10;99.90
10678;DHT22;5387;48.722;9.110;2023-01-24T16:18:24;2.10;99.90
10678;DHT22;5387;48.722;9.110;2023-01-24T16:20:51;2.00;99.90
10678;DHT22;5387;48.722;9.110;2023-01-24T16:23:18;2.00;99.90
10678;DHT22;5387;48.722;9.110;2023-01-24T16:25:47;1.90;99.90
10678;DHT22;5387;48.722;9.110;2023-01-24T16:28:17;1.90;99.90
10678;DHT22;5387;48.722;9.110;2023-01-24T16:30:45;2.00;99.90
10678;DHT22;5387;48.722;9.110;2023-01-24T16:33:13;1.90;99.90
10678;DHT22;5387;48.722;9.110;2023-01-24T16:35:41;1.90;99.90
10678;DHT22;5387;48.722;9.110;2023-01-24T16:38:08;2.00;99.90
10678;DHT22;5387;48.722;9.110;2023-01-24T16:40:35;1.90;99.90
10678;DHT22;5387;48.722;9.110;2023-01-24T16:43:03;1.80;99.90
10678;DHT22;5387;48.722;9.110;2023-01-24T16:45:31;1.80;99.90
10678;DHT22;5387;48.722;9.110;2023-01-24T16:47:59;1.80;99.90
10678;DHT22;5387;48.722;9.110;2023-01-24T16:50:26;1.80;99.90
10678;DHT22;5387;48.722;9.110;2023-01-24T16:52:54;1.80;99.90